Spring River (Missouri), La Russell (07185700)

StateMissouriLatestPoor (61 cfs)
RiverSpring RiverRatingObservedEstimated
Updated2022-09-25 20:30 (1 hour ago)Flood - The river is flooding. Obstacles can be treacherous or deadly. The river should be avoided at this stage for casual trips and definitely for the inexperienced. Trips should be attempted only with protective gear and equipment.Flood(none)1197
Discharge61 cfs (median: 96 cfs)High - The river is high and potentially dangerous, especially for the young and / or inexperienced. Normal stream obstacles are sometimes difficult to navigate. Extended distances can be attempted, but canoe travel may not be advisable.High(none)276
Height1.36 feetGood - Conditions are ideal for a canoe or kayak. Boats typically will drag on fewer than one-quarter of riffles, if at all, and portages are unnecessary or rare. Normal float lengths can be attempted without a problem.Good(none)261
TrendRising (falling over 24 hours)Low - River is low but can still be floated. Some riffles are okay but most come with significant dragging and might need a portage. Float lengths should be reduced to accommodate low flow, dragging, and portages.Low(none)158
USGSExternal icon USGS Site (External icon Duck Duck Go Maps)Poor - River is too low to float comfortably. Most or all riffles will drag or must be portaged and some obstacles (such as slick shelf rock) cause undue problems. Avoid the river at this stage for casual paddling trips.Poor(none)43

Trending Data

Plot Image

Trips for Spring River (Missouri), La Russell (07185700)

DateStartEndDistanceConditionDischargeHeightFishingDetails

A total of 0 rows are displayed.

Condition Descriptions

Fishing Conditions

Fish Species

Notes

Classic Trip List

The classic River Trips application is still available for use. It is updated with the new system using a data retrofit. It is no longer maintained. The original River Trips application is no longer updated (as of 1 Dec 2016) but can be checked for errors or for the condition of the data before it was converted to the new system.

Gauge Data Table

ObservationHeightDischargeMaximum
Discharge
Minimum
Discharge
Mean
Discharge
P05P10P20P25P50
(Median)
P75P80P90P95
2022-09-25 20:30 1.36 61 1840 (1973) 30 (1980) 172 36 39 50 56 96 170 213 338 524
2022-09-25 19:30 1.35 59 1840 (1973) 30 (1980) 172 36 39 50 56 96 170 213 338 524
2022-09-25 18:30 1.32 55 1840 (1973) 30 (1980) 172 36 39 50 56 96 170 213 338 524
2022-09-25 17:30 1.33 57 1840 (1973) 30 (1980) 172 36 39 50 56 96 170 213 338 524
2022-09-25 16:30 1.34 58 1840 (1973) 30 (1980) 172 36 39 50 56 96 170 213 338 524
2022-09-25 15:30 1.33 57 1840 (1973) 30 (1980) 172 36 39 50 56 96 170 213 338 524
2022-09-25 14:30 1.36 61 1840 (1973) 30 (1980) 172 36 39 50 56 96 170 213 338 524
2022-09-25 13:30 1.34 58 1840 (1973) 30 (1980) 172 36 39 50 56 96 170 213 338 524
2022-09-25 12:30 1.36 61 1840 (1973) 30 (1980) 172 36 39 50 56 96 170 213 338 524
2022-09-25 11:30 1.36 61 1840 (1973) 30 (1980) 172 36 39 50 56 96 170 213 338 524
2022-09-25 10:30 1.36 61 1840 (1973) 30 (1980) 172 36 39 50 56 96 170 213 338 524
2022-09-25 09:30 1.38 64 1840 (1973) 30 (1980) 172 36 39 50 56 96 170 213 338 524
2022-09-25 08:30 1.37 62 1840 (1973) 30 (1980) 172 36 39 50 56 96 170 213 338 524
2022-09-25 07:30 1.38 64 1840 (1973) 30 (1980) 172 36 39 50 56 96 170 213 338 524
2022-09-25 06:30 1.39 65 1840 (1973) 30 (1980) 172 36 39 50 56 96 170 213 338 524
2022-09-25 05:30 1.38 64 1840 (1973) 30 (1980) 172 36 39 50 56 96 170 213 338 524
2022-09-25 04:30 1.38 64 1840 (1973) 30 (1980) 172 36 39 50 56 96 170 213 338 524
2022-09-25 03:30 1.38 64 1840 (1973) 30 (1980) 172 36 39 50 56 96 170 213 338 524
2022-09-25 02:30 1.39 65 1840 (1973) 30 (1980) 172 36 39 50 56 96 170 213 338 524
2022-09-25 01:30 1.39 65 1840 (1973) 30 (1980) 172 36 39 50 56 96 170 213 338 524
2022-09-25 00:30 1.39 65 1840 (1973) 30 (1980) 172 36 39 50 56 96 170 213 338 524
2022-09-24 23:30 1.39 65 927 (1977) 30 (1980) 149 36 38 51 56 100 154 196 366 505
2022-09-24 22:30 1.39 65 927 (1977) 30 (1980) 149 36 38 51 56 100 154 196 366 505
2022-09-24 21:30 1.39 65 927 (1977) 30 (1980) 149 36 38 51 56 100 154 196 366 505
2022-09-24 20:30 1.38 64 927 (1977) 30 (1980) 149 36 38 51 56 100 154 196 366 505
2022-09-24 19:30 1.38 64 927 (1977) 30 (1980) 149 36 38 51 56 100 154 196 366 505
2022-09-24 18:30 1.34 58 927 (1977) 30 (1980) 149 36 38 51 56 100 154 196 366 505
2022-09-24 17:30 1.38 64 927 (1977) 30 (1980) 149 36 38 51 56 100 154 196 366 505
2022-09-24 16:30 1.39 65 927 (1977) 30 (1980) 149 36 38 51 56 100 154 196 366 505
2022-09-24 15:30 1.40 67 927 (1977) 30 (1980) 149 36 38 51 56 100 154 196 366 505
2022-09-24 14:30 1.40 67 927 (1977) 30 (1980) 149 36 38 51 56 100 154 196 366 505
2022-09-24 13:30 1.37 62 927 (1977) 30 (1980) 149 36 38 51 56 100 154 196 366 505
2022-09-24 12:30 1.42 70 927 (1977) 30 (1980) 149 36 38 51 56 100 154 196 366 505
2022-09-24 11:30 1.45 74 927 (1977) 30 (1980) 149 36 38 51 56 100 154 196 366 505
2022-09-24 10:30 1.45 74 927 (1977) 30 (1980) 149 36 38 51 56 100 154 196 366 505
2022-09-24 09:30 1.42 70 927 (1977) 30 (1980) 149 36 38 51 56 100 154 196 366 505
2022-09-24 08:30 1.40 67 927 (1977) 30 (1980) 149 36 38 51 56 100 154 196 366 505
2022-09-24 07:30 1.40 67 927 (1977) 30 (1980) 149 36 38 51 56 100 154 196 366 505
2022-09-24 06:30 1.39 65 927 (1977) 30 (1980) 149 36 38 51 56 100 154 196 366 505
2022-09-24 05:30 1.39 65 927 (1977) 30 (1980) 149 36 38 51 56 100 154 196 366 505
2022-09-24 04:30 1.39 65 927 (1977) 30 (1980) 149 36 38 51 56 100 154 196 366 505
2022-09-24 03:30 1.39 65 927 (1977) 30 (1980) 149 36 38 51 56 100 154 196 366 505
2022-09-24 02:30 1.39 65 927 (1977) 30 (1980) 149 36 38 51 56 100 154 196 366 505
2022-09-24 01:30 1.39 65 927 (1977) 30 (1980) 149 36 38 51 56 100 154 196 366 505
2022-09-24 00:30 1.39 65 927 (1977) 30 (1980) 149 36 38 51 56 100 154 196 366 505
2022-09-23 23:30 1.39 65 723 (2009) 27 (1959) 141 30 38 53 60 100 156 194 246 668
2022-09-23 22:30 1.39 65 723 (2009) 27 (1959) 141 30 38 53 60 100 156 194 246 668
2022-09-23 21:30 1.39 65 723 (2009) 27 (1959) 141 30 38 53 60 100 156 194 246 668
2022-09-23 20:30 1.39 65 723 (2009) 27 (1959) 141 30 38 53 60 100 156 194 246 668
2022-09-23 19:30 1.39 65 723 (2009) 27 (1959) 141 30 38 53 60 100 156 194 246 668
2022-09-23 18:30 1.36 61 723 (2009) 27 (1959) 141 30 38 53 60 100 156 194 246 668
2022-09-23 17:30 1.37 62 723 (2009) 27 (1959) 141 30 38 53 60 100 156 194 246 668
2022-09-23 16:30 1.37 62 723 (2009) 27 (1959) 141 30 38 53 60 100 156 194 246 668
2022-09-23 15:30 1.39 65 723 (2009) 27 (1959) 141 30 38 53 60 100 156 194 246 668
2022-09-23 14:30 1.38 64 723 (2009) 27 (1959) 141 30 38 53 60 100 156 194 246 668
2022-09-23 13:30 1.39 65 723 (2009) 27 (1959) 141 30 38 53 60 100 156 194 246 668
2022-09-23 12:30 1.39 65 723 (2009) 27 (1959) 141 30 38 53 60 100 156 194 246 668
2022-09-23 11:30 1.36 61 723 (2009) 27 (1959) 141 30 38 53 60 100 156 194 246 668
2022-09-23 10:30 1.40 67 723 (2009) 27 (1959) 141 30 38 53 60 100 156 194 246 668
2022-09-23 09:30 1.36 61 723 (2009) 27 (1959) 141 30 38 53 60 100 156 194 246 668
2022-09-23 08:30 1.34 58 723 (2009) 27 (1959) 141 30 38 53 60 100 156 194 246 668
2022-09-23 07:30 1.36 61 723 (2009) 27 (1959) 141 30 38 53 60 100 156 194 246 668
2022-09-23 06:30 1.38 64 723 (2009) 27 (1959) 141 30 38 53 60 100 156 194 246 668
2022-09-23 05:30 1.40 67 723 (2009) 27 (1959) 141 30 38 53 60 100 156 194 246 668
2022-09-23 04:30 1.40 67 723 (2009) 27 (1959) 141 30 38 53 60 100 156 194 246 668
2022-09-23 03:30 1.41 68 723 (2009) 27 (1959) 141 30 38 53 60 100 156 194 246 668
2022-09-23 02:30 1.40 67 723 (2009) 27 (1959) 141 30 38 53 60 100 156 194 246 668
2022-09-23 01:30 1.40 67 723 (2009) 27 (1959) 141 30 38 53 60 100 156 194 246 668
2022-09-23 00:30 1.40 67 723 (2009) 27 (1959) 141 30 38 53 60 100 156 194 246 668
2022-09-22 23:30 1.40 67 1610 (2009) 27 (1959) 178 35 40 55 61 104 161 183 319 1030
2022-09-22 22:30 1.39 65 1610 (2009) 27 (1959) 178 35 40 55 61 104 161 183 319 1030
2022-09-22 21:30 1.39 65 1610 (2009) 27 (1959) 178 35 40 55 61 104 161 183 319 1030
2022-09-22 20:30 1.38 64 1610 (2009) 27 (1959) 178 35 40 55 61 104 161 183 319 1030
2022-09-22 19:30 1.38 64 1610 (2009) 27 (1959) 178 35 40 55 61 104 161 183 319 1030
2022-09-22 18:30 1.38 64 1610 (2009) 27 (1959) 178 35 40 55 61 104 161 183 319 1030
2022-09-22 17:30 1.38 64 1610 (2009) 27 (1959) 178 35 40 55 61 104 161 183 319 1030
2022-09-22 16:30 1.37 62 1610 (2009) 27 (1959) 178 35 40 55 61 104 161 183 319 1030
2022-09-22 15:30 1.42 70 1610 (2009) 27 (1959) 178 35 40 55 61 104 161 183 319 1030
2022-09-22 14:30 1.38 64 1610 (2009) 27 (1959) 178 35 40 55 61 104 161 183 319 1030
2022-09-22 13:30 1.38 64 1610 (2009) 27 (1959) 178 35 40 55 61 104 161 183 319 1030
2022-09-22 12:30 1.38 64 1610 (2009) 27 (1959) 178 35 40 55 61 104 161 183 319 1030
2022-09-22 11:30 1.36 61 1610 (2009) 27 (1959) 178 35 40 55 61 104 161 183 319 1030
2022-09-22 10:30 1.37 62 1610 (2009) 27 (1959) 178 35 40 55 61 104 161 183 319 1030
2022-09-22 09:30 1.36 61 1610 (2009) 27 (1959) 178 35 40 55 61 104 161 183 319 1030
2022-09-22 08:30 1.35 59 1610 (2009) 27 (1959) 178 35 40 55 61 104 161 183 319 1030
2022-09-22 07:30 1.33 57 1610 (2009) 27 (1959) 178 35 40 55 61 104 161 183 319 1030
2022-09-22 06:30 1.38 64 1610 (2009) 27 (1959) 178 35 40 55 61 104 161 183 319 1030
2022-09-22 05:30 1.38 64 1610 (2009) 27 (1959) 178 35 40 55 61 104 161 183 319 1030
2022-09-22 04:30 1.37 62 1610 (2009) 27 (1959) 178 35 40 55 61 104 161 183 319 1030
2022-09-22 03:30 1.39 65 1610 (2009) 27 (1959) 178 35 40 55 61 104 161 183 319 1030
2022-09-22 02:30 1.39 65 1610 (2009) 27 (1959) 178 35 40 55 61 104 161 183 319 1030
2022-09-22 01:30 1.38 64 1610 (2009) 27 (1959) 178 35 40 55 61 104 161 183 319 1030
2022-09-22 00:30 1.39 65 1610 (2009) 27 (1959) 178 35 40 55 61 104 161 183 319 1030
2022-09-21 23:30 1.38 64 752 (2009) 27 (1959) 143 37 42 58 65 104 153 182 265 684
2022-09-21 22:30 1.38 64 752 (2009) 27 (1959) 143 37 42 58 65 104 153 182 265 684
2022-09-21 21:30 1.38 64 752 (2009) 27 (1959) 143 37 42 58 65 104 153 182 265 684
2022-09-21 20:30 1.37 62 752 (2009) 27 (1959) 143 37 42 58 65 104 153 182 265 684
2022-09-21 19:30 1.37 62 752 (2009) 27 (1959) 143 37 42 58 65 104 153 182 265 684
2022-09-21 18:30 1.37 62 752 (2009) 27 (1959) 143 37 42 58 65 104 153 182 265 684
2022-09-21 17:30 1.37 62 752 (2009) 27 (1959) 143 37 42 58 65 104 153 182 265 684
2022-09-21 16:30 1.37 62 752 (2009) 27 (1959) 143 37 42 58 65 104 153 182 265 684
2022-09-21 15:30 1.35 59 752 (2009) 27 (1959) 143 37 42 58 65 104 153 182 265 684
2022-09-21 14:30 1.39 65 752 (2009) 27 (1959) 143 37 42 58 65 104 153 182 265 684
2022-09-21 13:30 1.33 57 752 (2009) 27 (1959) 143 37 42 58 65 104 153 182 265 684
2022-09-21 12:30 1.32 55 752 (2009) 27 (1959) 143 37 42 58 65 104 153 182 265 684
2022-09-21 11:30 1.36 61 752 (2009) 27 (1959) 143 37 42 58 65 104 153 182 265 684
2022-09-21 10:30 1.36 61 752 (2009) 27 (1959) 143 37 42 58 65 104 153 182 265 684
2022-09-21 09:30 1.36 61 752 (2009) 27 (1959) 143 37 42 58 65 104 153 182 265 684
2022-09-21 08:30 1.36 61 752 (2009) 27 (1959) 143 37 42 58 65 104 153 182 265 684
2022-09-21 07:30 1.36 61 752 (2009) 27 (1959) 143 37 42 58 65 104 153 182 265 684
2022-09-21 06:30 1.36 61 752 (2009) 27 (1959) 143 37 42 58 65 104 153 182 265 684
2022-09-21 05:30 1.36 61 752 (2009) 27 (1959) 143 37 42 58 65 104 153 182 265 684
2022-09-21 04:30 1.36 61 752 (2009) 27 (1959) 143 37 42 58 65 104 153 182 265 684
2022-09-21 03:30 1.36 61 752 (2009) 27 (1959) 143 37 42 58 65 104 153 182 265 684
2022-09-21 02:30 1.37 62 752 (2009) 27 (1959) 143 37 42 58 65 104 153 182 265 684
2022-09-21 01:30 1.37 62 752 (2009) 27 (1959) 143 37 42 58 65 104 153 182 265 684
2022-09-21 00:30 1.37 62 752 (2009) 27 (1959) 143 37 42 58 65 104 153 182 265 684
2022-09-20 23:30 1.36 61 1880 (2009) 27 (1959) 160 37 41 60 68 98 135 169 262 385
2022-09-20 22:30 1.36 61 1880 (2009) 27 (1959) 160 37 41 60 68 98 135 169 262 385
2022-09-20 21:30 1.36 61 1880 (2009) 27 (1959) 160 37 41 60 68 98 135 169 262 385
2022-09-20 20:30 1.36 61 1880 (2009) 27 (1959) 160 37 41 60 68 98 135 169 262 385
2022-09-20 19:30 1.36 61 1880 (2009) 27 (1959) 160 37 41 60 68 98 135 169 262 385
2022-09-20 18:30 1.35 59 1880 (2009) 27 (1959) 160 37 41 60 68 98 135 169 262 385
2022-09-20 17:30 1.36 61 1880 (2009) 27 (1959) 160 37 41 60 68 98 135 169 262 385
2022-09-20 16:30 1.37 62 1880 (2009) 27 (1959) 160 37 41 60 68 98 135 169 262 385
2022-09-20 15:30 1.34 58 1880 (2009) 27 (1959) 160 37 41 60 68 98 135 169 262 385
2022-09-20 14:30 1.36 61 1880 (2009) 27 (1959) 160 37 41 60 68 98 135 169 262 385
2022-09-20 13:30 1.38 64 1880 (2009) 27 (1959) 160 37 41 60 68 98 135 169 262 385
2022-09-20 12:30 1.37 62 1880 (2009) 27 (1959) 160 37 41 60 68 98 135 169 262 385
2022-09-20 11:30 1.39 65 1880 (2009) 27 (1959) 160 37 41 60 68 98 135 169 262 385
2022-09-20 10:30 1.39 65 1880 (2009) 27 (1959) 160 37 41 60 68 98 135 169 262 385
2022-09-20 09:30 1.40 67 1880 (2009) 27 (1959) 160 37 41 60 68 98 135 169 262 385
2022-09-20 08:30 1.41 68 1880 (2009) 27 (1959) 160 37 41 60 68 98 135 169 262 385
2022-09-20 07:30 1.41 68 1880 (2009) 27 (1959) 160 37 41 60 68 98 135 169 262 385
2022-09-20 06:30 1.40 67 1880 (2009) 27 (1959) 160 37 41 60 68 98 135 169 262 385
2022-09-20 05:30 1.41 68 1880 (2009) 27 (1959) 160 37 41 60 68 98 135 169 262 385
2022-09-20 04:30 1.41 68 1880 (2009) 27 (1959) 160 37 41 60 68 98 135 169 262 385
2022-09-20 03:30 1.41 68 1880 (2009) 27 (1959) 160 37 41 60 68 98 135 169 262 385
2022-09-20 02:30 1.41 68 1880 (2009) 27 (1959) 160 37 41 60 68 98 135 169 262 385
2022-09-20 01:30 1.41 68 1880 (2009) 27 (1959) 160 37 41 60 68 98 135 169 262 385
2022-09-20 00:30 1.41 68 1880 (2009) 27 (1959) 160 37 41 60 68 98 135 169 262 385
2022-09-19 23:30 1.41 68 425 (2008) 27 (1959) 116 36 41 65 67 96 135 170 216 299
2022-09-19 22:30 1.41 68 425 (2008) 27 (1959) 116 36 41 65 67 96 135 170 216 299
2022-09-19 21:30 1.41 68 425 (2008) 27 (1959) 116 36 41 65 67 96 135 170 216 299
2022-09-19 20:30 1.41 68 425 (2008) 27 (1959) 116 36 41 65 67 96 135 170 216 299
2022-09-19 19:30 1.41 68 425 (2008) 27 (1959) 116 36 41 65 67 96 135 170 216 299
2022-09-19 18:30 1.41 68 425 (2008) 27 (1959) 116 36 41 65 67 96 135 170 216 299
2022-09-19 17:30 1.41 68 425 (2008) 27 (1959) 116 36 41 65 67 96 135 170 216 299
2022-09-19 16:30 1.41 68 425 (2008) 27 (1959) 116 36 41 65 67 96 135 170 216 299
2022-09-19 15:30 1.39 65 425 (2008) 27 (1959) 116 36 41 65 67 96 135 170 216 299
2022-09-19 14:30 1.39 65 425 (2008) 27 (1959) 116 36 41 65 67 96 135 170 216 299
2022-09-19 13:30 1.41 68 425 (2008) 27 (1959) 116 36 41 65 67 96 135 170 216 299
2022-09-19 12:30 1.44 73 425 (2008) 27 (1959) 116 36 41 65 67 96 135 170 216 299
2022-09-19 11:30 1.40 67 425 (2008) 27 (1959) 116 36 41 65 67 96 135 170 216 299
2022-09-19 10:30 1.40 67 425 (2008) 27 (1959) 116 36 41 65 67 96 135 170 216 299
2022-09-19 09:30 1.39 65 425 (2008) 27 (1959) 116 36 41 65 67 96 135 170 216 299
2022-09-19 08:30 1.43 71 425 (2008) 27 (1959) 116 36 41 65 67 96 135 170 216 299
2022-09-19 07:30 1.42 70 425 (2008) 27 (1959) 116 36 41 65 67 96 135 170 216 299
2022-09-19 06:30 1.41 68 425 (2008) 27 (1959) 116 36 41 65 67 96 135 170 216 299
2022-09-19 05:30 1.41 68 425 (2008) 27 (1959) 116 36 41 65 67 96 135 170 216 299
2022-09-19 04:30 1.42 70 425 (2008) 27 (1959) 116 36 41 65 67 96 135 170 216 299
2022-09-19 03:30 1.41 68 425 (2008) 27 (1959) 116 36 41 65 67 96 135 170 216 299
2022-09-19 02:30 1.42 70 425 (2008) 27 (1959) 116 36 41 65 67 96 135 170 216 299
2022-09-19 01:30 1.42 70 425 (2008) 27 (1959) 116 36 41 65 67 96 135 170 216 299
2022-09-19 00:30 1.42 70 425 (2008) 27 (1959) 116 36 41 65 67 96 135 170 216 299
2022-09-18 23:30 1.42 70 471 (2008) 27 (1959) 119 34 41 65 69 94 127 141 256 322
2022-09-18 22:30 1.42 70 471 (2008) 27 (1959) 119 34 41 65 69 94 127 141 256 322
2022-09-18 21:30 1.42 70 471 (2008) 27 (1959) 119 34 41 65 69 94 127 141 256 322
2022-09-18 20:30 1.42 70 471 (2008) 27 (1959) 119 34 41 65 69 94 127 141 256 322
2022-09-18 19:30 1.41 68 471 (2008) 27 (1959) 119 34 41 65 69 94 127 141 256 322
2022-09-18 18:30 1.41 68 471 (2008) 27 (1959) 119 34 41 65 69 94 127 141 256 322
2022-09-18 17:30 1.41 68 471 (2008) 27 (1959) 119 34 41 65 69 94 127 141 256 322
2022-09-18 16:30 1.41 68 471 (2008) 27 (1959) 119 34 41 65 69 94 127 141 256 322
2022-09-18 15:30 1.43 71 471 (2008) 27 (1959) 119 34 41 65 69 94 127 141 256 322
2022-09-18 14:30 1.41 68 471 (2008) 27 (1959) 119 34 41 65 69 94 127 141 256 322
2022-09-18 13:30 1.41 68 471 (2008) 27 (1959) 119 34 41 65 69 94 127 141 256 322
2022-09-18 12:30 1.40 67 471 (2008) 27 (1959) 119 34 41 65 69 94 127 141 256 322
2022-09-18 11:30 1.39 65 471 (2008) 27 (1959) 119 34 41 65 69 94 127 141 256 322
2022-09-18 10:30 1.39 65 471 (2008) 27 (1959) 119 34 41 65 69 94 127 141 256 322
2022-09-18 09:30 1.39 65 471 (2008) 27 (1959) 119 34 41 65 69 94 127 141 256 322
2022-09-18 08:30 1.42 70 471 (2008) 27 (1959) 119 34 41 65 69 94 127 141 256 322
2022-09-18 07:30 1.43 71 471 (2008) 27 (1959) 119 34 41 65 69 94 127 141 256 322
2022-09-18 06:30 1.41 68 471 (2008) 27 (1959) 119 34 41 65 69 94 127 141 256 322
2022-09-18 05:30 1.41 68 471 (2008) 27 (1959) 119 34 41 65 69 94 127 141 256 322
2022-09-18 04:30 1.41 68 471 (2008) 27 (1959) 119 34 41 65 69 94 127 141 256 322
2022-09-18 03:30 1.41 68 471 (2008) 27 (1959) 119 34 41 65 69 94 127 141 256 322
2022-09-18 02:30 1.41 68 471 (2008) 27 (1959) 119 34 41 65 69 94 127 141 256 322
2022-09-18 01:30 1.41 68 471 (2008) 27 (1959) 119 34 41 65 69 94 127 141 256 322
2022-09-18 00:30 1.41 68 471 (2008) 27 (1959) 119 34 41 65 69 94 127 141 256 322

A total of 189 rows are displayed for years 1957 through 2021.